Terminal Aerodrome Forecast
Issued by NWS

Home | Current Version | Previous Version | Text Only | Print | Product List | Glossary Off
Versions: 1 2 3 4 5 6 7 8 9 10 11 12 13 14 15 16

000
FTUS43 KMPX 051123
TAFRNH
TAF
KRNH 051123Z 0512/0612 22006KT 6SM BR SCT025
      TEMPO 0512/0514 2SM BR BKN020
     FM051400 14009KT P6SM OVC090
     FM052100 16012G18KT P6SM OVC035
     FM060200 19012G18KT P6SM OVC025
     FM060600 23011KT P6SM OVC020=

USA.gov is the U.S. government's official web portal to all federal, state and local government web resources and services.